Time;durP1;ratioP1;P1;durP2;ratioP2;P2;SDS_P1;SDS_P2;PMS_P1;PMS_P2;Temp;Humidity;BMP_temperature;BMP_pressure;BME280_temperature;BME280_humidity;BME280_pressure;Samples;Min_cycle;Max_cycle;Signal;HPM_P1;HPM_P2
2022/04/17 00:00:30;;;;;;;10.47;5.23;;;14.30;69.20;;;;;;4997287;28;20174;-95
2022/04/17 00:02:56;;;;;;;6.67;4.03;;;14.60;68.70;;;;;;4999003;28;20196;-94
2022/04/17 00:05:22;;;;;;;6.37;4.37;;;14.30;69.90;;;;;;4992074;28;20205;-94
2022/04/17 00:07:47;;;;;;;7.90;4.40;;;14.20;70.20;;;;;;4986072;28;20185;-94
2022/04/17 00:10:13;;;;;;;6.27;4.67;;;14.20;70.80;;;;;;4986016;28;20215;-96
2022/04/17 00:12:40;;;;;;;6.53;4.83;;;14.10;71.00;;;;;;4984139;28;20177;-96
2022/04/17 00:15:07;;;;;;;7.40;5.30;;;14.00;71.60;;;;;;4982318;28;20176;-96
2022/04/17 00:17:34;;;;;;;11.50;5.20;;;13.80;72.10;;;;;;4981450;28;20174;-96
2022/04/17 00:19:59;;;;;;;6.63;4.63;;;13.90;72.60;;;;;;4981465;28;20659;-96
2022/04/17 00:22:26;;;;;;;7.87;5.33;;;13.80;72.10;;;;;;4982101;28;20263;-96
2022/04/17 00:24:52;;;;;;;8.13;4.50;;;13.60;71.90;;;;;;4981783;28;20195;-95
2022/04/17 00:27:18;;;;;;;6.90;4.73;;;13.60;72.30;;;;;;4982258;28;20215;-96
2022/04/17 00:29:44;;;;;;;9.60;4.57;;;13.50;73.40;;;;;;4982131;28;20647;-96
2022/04/17 00:32:10;;;;;;;8.23;4.90;;;13.60;72.30;;;;;;4981422;28;20630;-95
2022/04/17 00:34:37;;;;;;;6.60;4.77;;;13.50;72.70;;;;;;4981294;28;20236;-94
2022/04/17 00:37:04;;;;;;;7.43;5.30;;;13.60;72.90;;;;;;4981456;28;20165;-96
2022/04/17 00:39:30;;;;;;;6.10;4.87;;;13.60;72.80;;;;;;4981085;28;20583;-96
2022/04/17 00:41:56;;;;;;;6.53;5.03;;;13.60;72.70;;;;;;4992280;28;20181;-96
2022/04/17 00:44:22;;;;;;;7.53;5.10;;;13.40;73.30;;;;;;5001001;28;20170;-96
2022/04/17 00:46:48;;;;;;;6.60;4.83;;;13.70;72.10;;;;;;5001593;28;20176;-96
2022/04/17 00:49:14;;;;;;;7.47;5.20;;;13.50;72.80;;;;;;5000838;28;20175;-95
2022/04/17 00:51:46;;;;;;;7.13;5.47;;;13.60;72.90;;;;;;5001939;28;20177;-96
2022/04/17 00:54:13;;;;;;;7.37;4.57;;;13.60;72.80;;;;;;5002765;28;20201;-96
2022/04/17 00:56:40;;;;;;;7.53;5.03;;;13.40;73.40;;;;;;5012269;28;20160;-95
2022/04/17 00:59:09;;;;;;;7.97;5.00;;;13.30;74.30;;;;;;5002804;28;20188;-93
2022/04/17 01:01:36;;;;;;;7.77;5.47;;;13.10;75.00;;;;;;5002919;28;20184;-91
2022/04/17 01:04:05;;;;;;;7.50;5.20;;;13.10;75.20;;;;;;4987406;28;20191;-94
2022/04/17 01:06:34;;;;;;;7.67;5.10;;;13.00;75.90;;;;;;4984871;28;20169;-94
2022/04/17 01:09:01;;;;;;;6.70;5.00;;;13.00;75.80;;;;;;4983882;28;20173;-96
2022/04/17 01:11:27;;;;;;;8.90;4.60;;;12.90;75.80;;;;;;4992096;28;20240;-93
2022/04/17 01:13:54;;;;;;;7.37;5.10;;;13.00;75.30;;;;;;5015478;28;20263;-94
2022/04/17 01:16:23;;;;;;;7.30;4.87;;;13.20;74.80;;;;;;5014639;28;20199;-94
2022/04/17 01:19:04;;;;;;;7.73;5.10;;;13.30;74.10;;;;;;5012820;28;20256;-95
2022/04/17 01:21:34;;;;;;;6.83;4.77;;;13.30;73.90;;;;;;5000547;28;20567;-93
2022/04/17 01:26:56;;;;;;;6.67;4.90;;;13.10;73.90;;;;;;5017242;28;20175;-96
2022/04/17 01:29:32;;;;;;;7.47;5.03;;;12.70;75.40;;;;;;4998929;28;20177;-96
2022/04/17 01:31:59;;;;;;;8.73;5.63;;;12.60;76.40;;;;;;4999105;28;20602;-95
2022/04/17 01:34:25;;;;;;;16.17;5.50;;;12.40;76.70;;;;;;4998937;28;20258;-95
2022/04/17 01:36:54;;;;;;;8.70;5.10;;;12.50;77.20;;;;;;4999137;28;20199;-94
2022/04/17 01:39:22;;;;;;;9.40;5.53;;;12.40;77.30;;;;;;4999409;28;20179;-94
2022/04/17 01:41:49;;;;;;;6.63;5.10;;;12.40;77.60;;;;;;4999539;28;20171;-95
2022/04/17 01:44:16;;;;;;;7.53;5.17;;;12.40;77.40;;;;;;4998895;28;20172;-92
2022/04/17 01:46:43;;;;;;;7.00;4.63;;;12.30;77.70;;;;;;4998856;28;20169;-95
2022/04/17 01:49:09;;;;;;;9.00;5.33;;;12.20;78.40;;;;;;4998684;28;20633;-96
2022/04/17 01:51:37;;;;;;;7.30;5.07;;;12.00;79.20;;;;;;4998616;28;20194;-96
2022/04/17 01:54:03;;;;;;;6.93;5.33;;;12.00;79.40;;;;;;4998415;28;20212;-94
2022/04/17 01:56:29;;;;;;;7.10;4.73;;;12.10;79.10;;;;;;5016392;28;20168;-95
2022/04/17 01:58:54;;;;;;;8.20;4.77;;;12.10;79.40;;;;;;4998451;28;20181;-95
2022/04/17 02:01:20;;;;;;;6.40;4.80;;;12.20;78.60;;;;;;4998283;28;20229;-95
2022/04/17 02:03:45;;;;;;;7.30;5.30;;;12.10;77.70;;;;;;4998681;28;20172;-95
2022/04/17 02:06:11;;;;;;;11.13;4.70;;;12.10;76.60;;;;;;4998521;28;20188;-95
2022/04/17 02:08:44;;;;;;;7.60;5.17;;;12.00;77.00;;;;;;4998500;28;20220;-95
2022/04/17 02:11:12;;;;;;;6.57;4.33;;;12.00;78.00;;;;;;4998266;28;20169;-96
2022/04/17 02:13:39;;;;;;;5.63;4.33;;;11.90;77.50;;;;;;4998123;28;20284;-96
2022/04/17 02:16:06;;;;;;;8.63;4.87;;;11.90;79.10;;;;;;4998407;28;20179;-96
2022/04/17 02:18:32;;;;;;;6.07;4.20;;;11.80;79.90;;;;;;4998162;28;20507;-95
2022/04/17 02:20:59;;;;;;;9.63;4.90;;;11.70;80.20;;;;;;4998162;28;20225;-95
2022/04/17 02:23:24;;;;;;;7.87;5.13;;;11.70;80.20;;;;;;4997576;28;20177;-96
2022/04/17 02:25:50;;;;;;;7.10;4.60;;;11.70;80.40;;;;;;4998215;28;20172;-96
2022/04/17 02:28:16;;;;;;;8.67;4.77;;;11.60;79.60;;;;;;4998247;28;20175;-95
2022/04/17 02:30:41;;;;;;;6.87;4.53;;;11.50;79.80;;;;;;4997871;28;20167;-94
2022/04/17 02:33:07;;;;;;;7.03;5.13;;;11.60;79.10;;;;;;4997871;28;20214;-95
2022/04/17 02:35:33;;;;;;;5.80;4.53;;;11.60;78.60;;;;;;4997818;28;20172;-96
2022/04/17 02:37:58;;;;;;;5.30;4.00;;;11.50;79.60;;;;;;4996854;28;20232;-96
2022/04/17 02:40:24;;;;;;;5.37;4.20;;;11.60;79.20;;;;;;4997554;28;20209;-96
2022/04/17 02:42:50;;;;;;;6.57;5.10;;;11.50;78.90;;;;;;4997214;28;20625;-95
2022/04/17 02:45:17;;;;;;;7.63;4.87;;;11.50;79.70;;;;;;4997650;28;20176;-94
2022/04/17 02:47:42;;;;;;;7.70;4.63;;;11.40;80.00;;;;;;4990209;28;20181;-95
2022/04/17 02:50:13;;;;;;;7.07;4.47;;;11.40;80.10;;;;;;4978361;28;20168;-96
2022/04/17 02:52:39;;;;;;;6.53;4.47;;;11.30;78.70;;;;;;4978720;28;20183;-95
2022/04/17 02:55:06;;;;;;;6.40;5.03;;;11.30;78.10;;;;;;4977876;28;20296;-95
2022/04/17 02:57:32;;;;;;;9.00;4.60;;;11.40;78.10;;;;;;4977232;28;20195;-96
2022/04/17 02:59:59;;;;;;;6.27;4.40;;;11.40;77.80;;;;;;4977953;28;20181;-95
2022/04/17 03:07:55;;;;;;;5.07;4.17;;;11.50;79.10;;;;;;4995146;28;20639;-96
2022/04/17 03:10:21;;;;;;;6.00;4.40;;;11.20;80.10;;;;;;4977926;28;20180;-94
2022/04/17 03:12:48;;;;;;;8.03;4.63;;;11.10;81.10;;;;;;4976834;28;20185;-94
2022/04/17 03:15:13;;;;;;;6.93;4.93;;;10.90;81.40;;;;;;4977376;28;20184;-96
2022/04/17 03:17:39;;;;;;;5.87;4.30;;;10.90;82.20;;;;;;4977919;28;20192;-96
2022/04/17 03:20:06;;;;;;;6.67;4.63;;;10.70;83.10;;;;;;4977998;28;20184;-95
2022/04/17 03:22:33;;;;;;;8.10;4.93;;;10.60;82.70;;;;;;4977960;28;20262;-94
2022/04/17 03:25:04;;;;;;;6.37;4.47;;;10.50;82.30;;;;;;4977895;28;20197;-96
2022/04/17 03:27:30;;;;;;;7.80;4.60;;;10.60;82.20;;;;;;4978053;28;20184;-95
2022/04/17 03:29:56;;;;;;;6.70;4.77;;;10.70;81.70;;;;;;4978210;28;20188;-95
2022/04/17 03:32:22;;;;;;;6.17;4.80;;;10.70;82.20;;;;;;4977599;28;20183;-95
2022/04/17 03:34:48;;;;;;;7.00;4.53;;;10.60;82.20;;;;;;4978982;28;20620;-96
2022/04/17 03:37:15;;;;;;;5.20;4.30;;;10.60;81.60;;;;;;4981485;28;20177;-95
2022/04/17 03:39:41;;;;;;;6.63;4.73;;;10.50;82.40;;;;;;4981685;28;20185;-95
2022/04/17 03:42:07;;;;;;;6.97;4.70;;;10.50;83.20;;;;;;4981345;28;20174;-95
2022/04/17 03:44:33;;;;;;;8.87;5.13;;;10.50;83.00;;;;;;4982006;28;20218;-95
2022/04/17 03:47:00;;;;;;;6.63;4.53;;;10.50;83.50;;;;;;4981843;28;20190;-95
2022/04/17 03:49:26;;;;;;;8.83;5.30;;;10.40;83.70;;;;;;4982376;28;20178;-96
2022/04/17 03:51:52;;;;;;;6.30;4.73;;;10.30;83.60;;;;;;4981366;28;20179;-96
2022/04/17 03:54:17;;;;;;;7.90;4.83;;;10.20;83.80;;;;;;4981266;28;20205;-95
2022/04/17 03:56:44;;;;;;;6.90;5.07;;;10.30;84.10;;;;;;4980887;28;20167;-95
2022/04/17 03:59:10;;;;;;;6.10;4.73;;;10.30;84.10;;;;;;4981260;28;20647;-95
2022/04/17 04:01:36;;;;;;;4.97;4.10;;;10.30;83.50;;;;;;4988189;28;20188;-95
2022/04/17 04:04:02;;;;;;;5.60;4.20;;;10.30;81.60;;;;;;4993858;28;20183;-94
2022/04/17 04:06:27;;;;;;;6.23;4.50;;;10.20;81.70;;;;;;4983339;28;20276;-96
2022/04/17 04:08:53;;;;;;;7.00;4.63;;;10.40;81.60;;;;;;4981111;28;20378;-93
2022/04/17 04:11:19;;;;;;;7.43;4.53;;;10.40;80.70;;;;;;4981632;28;20178;-93
2022/04/17 04:13:45;;;;;;;6.57;4.43;;;10.30;81.50;;;;;;4981338;28;20264;-96
2022/04/17 04:16:11;;;;;;;5.60;4.13;;;10.30;81.60;;;;;;4981647;28;20253;-96
2022/04/17 04:18:37;;;;;;;6.77;4.70;;;10.30;81.40;;;;;;4981165;28;20205;-94
2022/04/17 04:21:03;;;;;;;5.17;4.30;;;10.50;81.30;;;;;;4980875;28;20189;-95
2022/04/17 04:23:33;;;;;;;5.60;4.60;;;10.30;83.60;;;;;;4980531;28;20209;-96
2022/04/17 04:25:59;;;;;;;7.80;3.97;;;10.30;84.50;;;;;;4980414;28;20190;-94
2022/04/17 04:28:36;;;;;;;5.13;4.00;;;10.20;84.50;;;;;;4981931;28;20170;-96
2022/04/17 04:31:02;;;;;;;5.90;4.17;;;10.30;82.80;;;;;;4980798;28;20269;-94
2022/04/17 04:33:31;;;;;;;6.30;4.50;;;10.10;84.20;;;;;;4980667;28;20356;-94
2022/04/17 04:35:59;;;;;;;9.47;4.60;;;10.00;84.80;;;;;;4981353;28;20174;-96
2022/04/17 04:38:25;;;;;;;7.10;4.27;;;9.70;85.50;;;;;;4979894;28;20200;-95
2022/04/17 04:40:54;;;;;;;6.67;4.27;;;9.60;85.90;;;;;;4980139;28;20202;-95
2022/04/17 04:43:20;;;;;;;5.90;4.40;;;9.60;85.40;;;;;;4981530;28;20175;-96
2022/04/17 04:51:15;;;;;;;5.60;4.30;;;9.50;85.00;;;;;;4998987;28;20176;-95
2022/04/17 04:53:41;;;;;;;5.10;3.90;;;9.40;85.90;;;;;;4979998;28;20202;-96
2022/04/17 04:56:07;;;;;;;5.83;4.30;;;9.40;86.90;;;;;;4980054;28;20204;-95
2022/04/17 04:58:34;;;;;;;7.47;4.23;;;9.30;87.20;;;;;;4979965;28;20172;-96
2022/04/17 05:00:59;;;;;;;5.33;4.07;;;9.30;86.50;;;;;;4979904;28;20173;-95
2022/04/17 05:03:25;;;;;;;7.27;4.20;;;9.30;87.60;;;;;;4980578;28;20542;-96
2022/04/17 05:05:52;;;;;;;5.83;4.07;;;9.20;86.40;;;;;;4988314;28;20463;-95
2022/04/17 05:08:20;;;;;;;7.43;4.80;;;9.10;86.60;;;;;;4999387;28;20169;-95
2022/04/17 05:10:47;;;;;;;7.00;4.40;;;9.30;85.60;;;;;;4999400;28;20174;-95
2022/04/17 05:13:12;;;;;;;7.17;4.20;;;9.30;84.80;;;;;;4999803;28;20658;-94
2022/04/17 05:15:38;;;;;;;6.47;3.97;;;9.40;85.50;;;;;;4993127;28;20177;-94
2022/04/17 05:18:05;;;;;;;7.50;4.10;;;9.50;85.00;;;;;;4979992;28;20178;-95
2022/04/17 05:20:32;;;;;;;5.30;3.93;;;9.40;86.00;;;;;;4980109;28;20174;-95
2022/04/17 05:23:03;;;;;;;6.83;4.30;;;9.50;86.00;;;;;;4980123;28;20161;-95
2022/04/17 05:25:30;;;;;;;6.17;4.07;;;9.50;86.30;;;;;;4980231;28;20190;-96
2022/04/17 05:27:55;;;;;;;5.57;4.13;;;9.50;85.80;;;;;;4980008;28;20610;-96
2022/04/17 05:30:21;;;;;;;6.67;4.20;;;9.40;86.20;;;;;;4980007;28;20261;-96
2022/04/17 05:32:46;;;;;;;5.33;3.73;;;9.40;86.80;;;;;;4979860;28;20170;-93
2022/04/17 05:35:12;;;;;;;4.80;3.77;;;9.50;86.00;;;;;;4980418;28;20279;-95
2022/04/17 05:37:38;;;;;;;6.17;4.20;;;9.50;86.60;;;;;;4980355;28;20193;-95
2022/04/17 05:40:04;;;;;;;7.27;4.60;;;9.50;87.20;;;;;;4981347;28;20189;-94
2022/04/17 05:42:30;;;;;;;6.50;3.90;;;9.50;86.60;;;;;;4986524;28;20158;-94
2022/04/17 05:44:56;;;;;;;5.37;3.57;;;9.60;85.00;;;;;;5001946;28;20169;-93
2022/04/17 05:47:21;;;;;;;5.67;3.83;;;9.60;84.80;;;;;;5002129;28;20195;-92
2022/04/17 05:49:47;;;;;;;6.33;4.03;;;9.60;86.60;;;;;;4999571;28;20220;-95
2022/04/17 05:52:13;;;;;;;6.60;4.53;;;9.70;86.90;;;;;;4991037;28;20264;-95
2022/04/17 05:54:43;;;;;;;4.83;4.07;;;9.60;87.20;;;;;;4983832;28;20658;-95
2022/04/17 05:57:09;;;;;;;5.23;4.20;;;9.60;87.50;;;;;;4981569;28;20170;-94
2022/04/17 05:59:36;;;;;;;5.80;4.00;;;9.70;88.70;;;;;;4981406;28;20202;-96
2022/04/17 06:02:03;;;;;;;6.30;4.30;;;9.80;87.20;;;;;;4980652;28;20226;-93
2022/04/17 06:04:29;;;;;;;5.37;4.30;;;9.80;86.70;;;;;;4982073;28;20197;-94
2022/04/17 06:06:55;;;;;;;4.90;4.10;;;9.90;85.30;;;;;;4983340;28;20178;-94
2022/04/17 06:09:20;;;;;;;6.60;3.83;;;9.90;87.30;;;;;;4984507;28;20274;-95
2022/04/17 06:11:47;;;;;;;6.87;4.00;;;10.00;85.10;;;;;;4992590;28;20177;-95
2022/04/17 06:14:12;;;;;;;4.50;3.00;;;10.20;82.50;;;;;;4994814;28;20210;-93
2022/04/17 06:16:39;;;;;;;6.07;3.27;;;10.40;76.60;;;;;;4993203;28;20159;-95
2022/04/17 06:19:05;;;;;;;6.13;3.20;;;10.70;75.70;;;;;;4991241;28;20180;-95
2022/04/17 06:21:31;;;;;;;6.57;3.07;;;10.70;74.70;;;;;;4994891;28;20193;-95
2022/04/17 06:23:56;;;;;;;3.47;2.83;;;10.90;74.30;;;;;;4997595;28;20198;-94
2022/04/17 06:26:24;;;;;;;5.00;2.83;;;10.90;72.90;;;;;;4998236;28;20176;-94
2022/04/17 06:28:50;;;;;;;4.17;2.87;;;11.00;72.20;;;;;;4998513;28;20177;-92
2022/04/17 06:31:15;;;;;;;4.23;3.00;;;11.20;70.90;;;;;;4974115;28;20211;-96
2022/04/17 06:33:42;;;;;;;4.73;3.13;;;11.50;70.00;;;;;;4989985;28;20204;-95
2022/04/17 06:36:08;;;;;;;5.47;2.80;;;11.60;69.40;;;;;;4986347;28;20286;-96
2022/04/17 06:38:33;;;;;;;4.07;2.73;;;11.60;69.20;;;;;;4992098;28;20176;-95
2022/04/17 06:40:59;;;;;;;5.70;2.63;;;11.50;69.90;;;;;;4989433;28;20242;-95
2022/04/17 06:43:26;;;;;;;3.07;2.37;;;11.40;70.40;;;;;;4986620;28;20247;-96
2022/04/17 06:45:51;;;;;;;3.17;2.60;;;11.60;70.20;;;;;;4987155;28;20185;-95
2022/04/17 06:48:21;;;;;;;2.57;2.13;;;11.50;69.80;;;;;;4988288;28;20170;-95
2022/04/17 06:50:48;;;;;;;5.97;2.83;;;11.60;69.60;;;;;;4981414;28;20202;-94
2022/04/17 06:53:15;;;;;;;4.93;2.47;;;11.80;69.00;;;;;;4993713;28;20308;-95
2022/04/17 06:55:41;;;;;;;5.80;2.77;;;12.10;67.50;;;;;;4975660;28;20174;-96
2022/04/17 06:58:08;;;;;;;3.80;2.47;;;12.10;68.00;;;;;;4986933;28;20154;-96
2022/04/17 07:00:34;;;;;;;4.37;2.47;;;12.20;67.60;;;;;;4990981;28;20232;-95
2022/04/17 07:03:00;;;;;;;3.53;2.47;;;12.40;67.00;;;;;;4984345;28;20215;-96
2022/04/17 07:05:26;;;;;;;3.10;2.13;;;12.40;65.80;;;;;;4982697;28;20620;-95
2022/04/17 07:08:03;;;;;;;5.20;2.80;;;12.30;65.00;;;;;;4984690;28;20188;-93
2022/04/17 07:10:32;;;;;;;2.77;2.10;;;12.40;66.50;;;;;;4996889;28;20308;-94
2022/04/17 07:12:58;;;;;;;4.67;2.43;;;12.50;65.60;;;;;;5002936;28;20318;-95
2022/04/17 07:15:24;;;;;;;4.00;2.23;;;12.60;65.80;;;;;;5003853;28;20207;-96
2022/04/17 07:17:51;;;;;;;2.80;2.57;;;12.70;65.30;;;;;;5006634;28;20178;-93
2022/04/17 07:20:19;;;;;;;2.70;2.20;;;12.80;65.30;;;;;;5002647;28;20225;-94
2022/04/17 07:22:46;;;;;;;5.80;2.07;;;13.00;65.20;;;;;;5001887;28;20175;-96
2022/04/17 07:25:12;;;;;;;3.07;2.33;;;13.20;64.40;;;;;;4991537;28;20208;-92
2022/04/17 07:27:40;;;;;;;4.00;2.20;;;13.10;63.70;;;;;;5002678;28;20175;-95
2022/04/17 07:30:20;;;;;;;4.30;2.27;;;13.20;64.10;;;;;;4989108;28;20196;-96
2022/04/17 07:32:51;;;;;;;3.13;2.20;;;13.30;63.70;;;;;;5018424;28;20171;-96
2022/04/17 07:35:18;;;;;;;3.37;2.20;;;13.40;63.20;;;;;;5009789;28;20303;-96
2022/04/17 07:37:55;;;;;;;3.23;2.07;;;13.40;63.70;;;;;;5003236;28;20166;-96
2022/04/17 07:40:25;;;;;;;2.97;1.90;;;13.70;62.30;;;;;;5002247;28;20616;-96
2022/04/17 07:42:51;;;;;;;2.30;2.10;;;13.70;62.50;;;;;;5003642;28;20255;-96
2022/04/17 07:45:19;;;;;;;2.43;2.10;;;13.60;62.50;;;;;;5005715;28;20527;-96
2022/04/17 07:47:47;;;;;;;3.97;2.57;;;13.60;63.30;;;;;;4994174;28;20219;-95
2022/04/17 07:50:18;;;;;;;3.87;2.20;;;13.90;62.70;;;;;;4979046;28;20179;-95
2022/04/17 07:52:44;;;;;;;3.33;2.17;;;13.90;62.90;;;;;;4985622;28;20173;-96
2022/04/17 07:55:12;;;;;;;3.37;2.20;;;13.90;62.80;;;;;;4988277;28;20245;-95
2022/04/17 08:00:24;;;;;;;3.30;2.37;;;14.10;62.50;;;;;;5000358;28;20200;-96
2022/04/17 08:03:07;;;;;;;2.67;2.30;;;14.20;62.00;;;;;;4986786;28;20208;-93
2022/04/17 08:05:41;;;;;;;5.00;2.67;;;14.40;61.40;;;;;;5005298;28;20307;-92
2022/04/17 08:08:10;;;;;;;3.77;2.00;;;14.50;59.70;;;;;;4995063;28;20189;-94
2022/04/17 08:10:38;;;;;;;3.13;2.50;;;14.40;59.90;;;;;;5008683;28;20211;-92
2022/04/17 08:13:04;;;;;;;6.00;2.30;;;14.50;60.20;;;;;;5008563;28;20203;-96
2022/04/17 08:15:29;;;;;;;3.43;2.20;;;14.50;60.80;;;;;;5000242;28;20243;-95
2022/04/17 08:17:55;;;;;;;3.57;1.93;;;14.60;59.60;;;;;;5001202;28;20523;-96
2022/04/17 08:20:21;;;;;;;2.10;1.90;;;14.60;59.70;;;;;;4999614;28;20579;-95
2022/04/17 08:22:46;;;;;;;2.87;2.03;;;14.40;60.10;;;;;;5000638;28;20576;-94
2022/04/17 08:25:13;;;;;;;3.37;2.20;;;14.50;60.60;;;;;;5001305;28;20261;-96
2022/04/17 08:27:49;;;;;;;4.10;2.60;;;14.60;60.00;;;;;;5000578;28;20173;-95
2022/04/17 08:30:35;;;;;;;3.87;2.43;;;14.90;59.10;;;;;;5000469;28;20263;-93
2022/04/17 08:33:06;;;;;;;3.73;2.30;;;15.00;59.40;;;;;;5000728;28;20629;-96
2022/04/17 08:35:32;;;;;;;8.60;2.73;;;14.80;59.00;;;;;;5004942;28;20270;-96
2022/04/17 08:38:00;;;;;;;3.90;2.40;;;15.00;60.00;;;;;;5001800;28;20224;-95
2022/04/17 08:40:26;;;;;;;4.33;2.77;;;14.90;60.00;;;;;;5000939;28;20181;-95
2022/04/17 08:42:54;;;;;;;4.63;2.60;;;14.90;60.70;;;;;;5000274;28;20180;-91
2022/04/17 08:45:20;;;;;;;4.07;2.50;;;15.00;60.50;;;;;;5000397;28;20173;-95
2022/04/17 08:47:46;;;;;;;3.77;2.57;;;15.10;60.10;;;;;;5000505;28;20228;-96
2022/04/17 08:50:14;;;;;;;2.87;2.10;;;15.10;60.80;;;;;;4999902;28;20178;-96
2022/04/17 08:52:41;;;;;;;4.30;2.30;;;15.10;61.00;;;;;;5000183;28;20177;-95
2022/04/17 08:55:08;;;;;;;4.80;2.70;;;15.20;60.20;;;;;;5000266;28;20211;-96
2022/04/17 08:57:34;;;;;;;2.77;2.40;;;15.30;60.50;;;;;;4999972;28;20194;-95
2022/04/17 09:00:00;;;;;;;2.77;2.40;;;15.40;58.90;;;;;;4990751;28;20533;-95
2022/04/17 09:02:25;;;;;;;3.30;2.50;;;15.40;59.50;;;;;;4964096;28;20212;-95
2022/04/17 09:04:51;;;;;;;3.23;2.40;;;15.30;60.30;;;;;;4980232;28;20634;-95
2022/04/17 09:07:17;;;;;;;3.83;2.90;;;15.30;61.10;;;;;;4980481;28;20173;-95
2022/04/17 09:09:48;;;;;;;5.20;2.60;;;15.30;60.80;;;;;;4979933;28;20186;-95
2022/04/17 09:12:22;;;;;;;3.60;2.60;;;15.40;60.70;;;;;;4982893;28;20218;-94
2022/04/17 09:14:48;;;;;;;4.30;2.77;;;15.50;60.20;;;;;;4983285;28;20230;-93
2022/04/17 09:17:13;;;;;;;6.43;3.00;;;15.50;59.90;;;;;;4982948;28;20178;-94
2022/04/17 09:19:39;;;;;;;2.87;2.50;;;15.70;59.90;;;;;;4981821;28;20174;-96
2022/04/17 09:22:06;;;;;;;5.90;3.23;;;15.60;60.30;;;;;;4983403;28;20190;-94
2022/04/17 09:24:36;;;;;;;3.03;2.53;;;15.60;60.10;;;;;;4982018;28;20475;-94
2022/04/17 09:27:03;;;;;;;7.13;2.60;;;15.50;60.00;;;;;;4981765;28;20181;-94
2022/04/17 09:29:32;;;;;;;4.23;2.30;;;15.60;59.70;;;;;;5000066;28;20181;-95
2022/04/17 09:32:02;;;;;;;4.73;2.50;;;15.50;60.70;;;;;;4999231;28;20180;-94
2022/04/17 09:34:41;;;;;;;3.20;2.90;;;15.70;60.00;;;;;;5004811;28;20736;-94
2022/04/17 09:37:14;;;;;;;4.83;2.77;;;15.90;59.00;;;;;;5006942;28;20180;-95
2022/04/17 09:39:40;;;;;;;4.60;2.73;;;15.90;59.90;;;;;;5007520;28;20184;-92
2022/04/17 09:42:07;;;;;;;4.90;2.73;;;16.00;59.20;;;;;;5013135;28;20173;-94
2022/04/17 09:44:47;;;;;;;4.53;2.90;;;16.00;59.10;;;;;;5007880;28;20172;-93
2022/04/17 09:47:17;;;;;;;3.87;2.43;;;15.80;59.80;;;;;;5005328;28;20185;-94
2022/04/17 09:49:51;;;;;;;3.93;2.83;;;15.60;60.20;;;;;;5005043;28;20175;-96
2022/04/17 09:52:18;;;;;;;4.40;3.13;;;15.70;61.30;;;;;;5005608;28;20213;-96
2022/04/17 09:54:44;;;;;;;4.10;3.13;;;15.90;60.50;;;;;;4988828;28;20206;-95
2022/04/17 09:57:12;;;;;;;4.60;3.03;;;15.90;60.30;;;;;;4982192;28;20233;-96
2022/04/17 09:59:39;;;;;;;4.97;2.93;;;16.00;59.70;;;;;;4979938;28;20210;-94
2022/04/17 10:02:05;;;;;;;3.73;2.80;;;16.00;60.70;;;;;;4985068;28;20194;-90
2022/04/17 10:04:31;;;;;;;4.60;2.70;;;16.20;60.00;;;;;;4999882;28;20178;-94
2022/04/17 10:06:59;;;;;;;5.97;2.97;;;16.20;59.90;;;;;;4999731;28;20195;-96
2022/04/17 10:09:26;;;;;;;4.00;2.63;;;16.20;59.70;;;;;;4990194;28;20236;-96
2022/04/17 10:11:56;;;;;;;5.47;3.07;;;16.10;59.00;;;;;;4984525;28;20243;-91
2022/04/17 10:14:23;;;;;;;3.43;2.70;;;16.20;59.60;;;;;;4986275;28;21039;-95
2022/04/17 10:16:52;;;;;;;3.60;2.80;;;16.20;59.00;;;;;;4982225;28;20170;-96
2022/04/17 10:19:28;;;;;;;3.43;2.57;;;16.20;58.20;;;;;;4979685;28;20240;-96
2022/04/17 10:21:57;;;;;;;5.20;2.70;;;16.30;58.00;;;;;;4978372;28;20204;-93
2022/04/17 10:24:23;;;;;;;4.77;2.63;;;16.30;57.00;;;;;;4978834;28;20194;-93
2022/04/17 10:26:51;;;;;;;3.60;2.40;;;16.40;56.20;;;;;;4995848;28;20542;-96
2022/04/17 10:29:20;;;;;;;2.87;2.47;;;16.50;56.50;;;;;;5005860;28;20181;-96
2022/04/17 10:32:11;;;;;;;3.43;2.60;;;16.50;57.30;;;;;;5007649;28;20287;-96
2022/04/17 10:35:25;;;;;;;;;;;;;;;;;;;;;
2022/04/17 10:38:10;;;;;;;4.03;2.90;;;16.50;59.30;;;;;;4999319;28;20191;-93
2022/04/17 10:40:44;;;;;;;5.10;2.90;;;16.70;59.70;;;;;;4978413;28;20180;-91
2022/04/17 10:43:29;;;;;;;3.77;3.13;;;16.90;59.00;;;;;;4977322;28;20181;-92
2022/04/17 10:46:37;;;;;;;3.80;3.00;;;17.00;59.30;;;;;;4978990;28;20178;-92
2022/04/17 10:49:12;;;;;;;5.47;3.03;;;17.00;59.10;;;;;;5014208;28;20196;-91
2022/04/17 10:51:49;;;;;;;3.33;3.00;;;17.00;58.80;;;;;;4998416;28;20793;-91
2022/04/17 10:54:46;;;;;;;3.57;2.77;;;17.00;58.60;;;;;;4998040;28;20589;-92
2022/04/17 10:57:42;;;;;;;3.33;3.00;;;17.10;58.00;;;;;;4991164;28;20177;-92
2022/04/17 11:00:48;;;;;;;5.60;3.03;;;17.20;58.10;;;;;;5016335;28;20200;-91
2022/04/17 11:03:37;;;;;;;3.23;2.93;;;17.30;58.30;;;;;;5001441;28;20196;-91
2022/04/17 11:07:12;;;;;;;5.17;3.20;;;17.60;58.20;;;;;;4981365;28;20212;-91
2022/04/17 11:09:52;;;;;;;3.67;2.50;;;18.40;57.50;;;;;;4957537;28;20632;-92
2022/04/17 11:12:46;;;;;;;3.60;3.27;;;20.00;55.90;;;;;;4959373;28;20222;-92
2022/04/17 11:16:24;;;;;;;;;;;;;;;;;;;;;
2022/04/17 11:20:25;;;;;;;;;;;;;;;;;;;;;
2022/04/17 11:34:54;;;;;;;;;;;;;;;;;;;;;
2022/04/17 11:53:43;;;;;;;3.67;3.22;;;32.30;41.90;;;;;;4993964;28;20217;-93
2022/04/17 11:56:08;;;;;;;5.50;4.82;;;32.10;41.80;;;;;;4975025;28;20186;-92
2022/04/17 11:58:34;;;;;;;3.83;3.22;;;32.50;42.00;;;;;;4961645;28;20203;-93
2022/04/17 12:01:03;;;;;;;4.10;3.35;;;32.50;41.60;;;;;;4963902;28;20619;-92
2022/04/17 12:03:36;;;;;;;4.00;3.60;;;32.80;41.60;;;;;;4964672;28;20276;-92
2022/04/17 12:06:04;;;;;;;3.38;2.80;;;33.70;41.10;;;;;;4964288;28;20193;-91
2022/04/17 12:08:37;;;;;;;4.25;3.85;;;33.90;40.90;;;;;;4965545;28;20210;-93
2022/04/17 12:11:07;;;;;;;3.35;3.10;;;34.00;40.80;;;;;;4963431;28;20197;-94
2022/04/17 12:13:33;;;;;;;3.65;3.35;;;34.60;40.30;;;;;;4963984;28;20613;-93
2022/04/17 12:16:06;;;;;;;3.78;3.47;;;34.80;39.90;;;;;;4963339;28;20179;-94
2022/04/17 12:18:32;;;;;;;3.78;3.10;;;34.70;39.90;;;;;;4965726;28;20186;-91
2022/04/17 12:21:06;;;;;;;4.18;3.30;;;35.20;39.90;;;;;;4985148;28;20264;-94
2022/04/17 12:23:33;;;;;;;3.63;3.33;;;35.80;39.60;;;;;;4968521;28;20908;-94
2022/04/17 12:26:00;;;;;;;3.85;3.55;;;35.30;39.60;;;;;;4962542;28;20171;-94
2022/04/17 12:28:27;;;;;;;4.72;3.80;;;35.50;39.50;;;;;;4972071;28;20185;-94
2022/04/17 12:30:53;;;;;;;4.78;4.38;;;35.80;39.30;;;;;;4982582;28;20177;-93
2022/04/17 12:33:27;;;;;;;3.58;3.28;;;36.00;39.50;;;;;;4982750;28;20202;-93
2022/04/17 12:36:11;;;;;;;3.67;3.38;;;36.10;39.30;;;;;;4983359;28;20174;-94
2022/04/17 12:38:40;;;;;;;4.43;3.47;;;36.90;39.30;;;;;;4981181;28;20657;-93
2022/04/17 12:41:19;;;;;;;3.22;2.92;;;37.10;38.50;;;;;;4980773;28;20178;-93
2022/04/17 12:43:48;;;;;;;3.50;3.20;;;37.10;38.30;;;;;;4980871;28;20188;-94
2022/04/17 12:46:26;;;;;;;3.35;3.05;;;37.50;38.50;;;;;;4980549;28;20170;-94
2022/04/17 12:49:10;;;;;;;4.05;2.90;;;37.40;37.80;;;;;;4962254;28;20252;-94
2022/04/17 12:51:38;;;;;;;3.80;3.10;;;37.90;37.40;;;;;;4960333;28;20210;-95
2022/04/17 12:54:12;;;;;;;4.63;3.28;;;37.50;37.30;;;;;;4960361;28;20202;-94
2022/04/17 12:56:38;;;;;;;3.25;2.95;;;37.50;37.30;;;;;;4960573;28;20273;-95
2022/04/17 12:59:04;;;;;;;3.42;3.13;;;37.70;37.30;;;;;;4960214;28;20265;-95
2022/04/17 13:01:37;;;;;;;4.18;3.45;;;37.50;37.70;;;;;;4960778;28;20186;-94
2022/04/17 13:04:16;;;;;;;3.20;2.88;;;37.40;37.40;;;;;;4961990;28;20258;-94
2022/04/17 13:06:42;;;;;;;2.95;2.75;;;37.50;37.40;;;;;;4959674;28;20201;-93
2022/04/17 13:09:23;;;;;;;4.50;3.15;;;37.60;37.40;;;;;;4960546;28;20206;-94
2022/04/17 13:11:53;;;;;;;3.42;3.13;;;38.10;37.30;;;;;;4960171;28;20533;-94
2022/04/17 13:14:19;;;;;;;5.35;3.10;;;38.50;37.00;;;;;;4960349;28;20361;-93
2022/04/17 13:16:54;;;;;;;3.45;3.15;;;38.90;36.50;;;;;;4960308;28;20273;-93
2022/04/17 13:19:22;;;;;;;3.17;2.88;;;38.70;36.60;;;;;;4960431;28;20273;-94
2022/04/17 13:21:49;;;;;;;2.63;2.42;;;39.30;36.00;;;;;;4959742;28;20687;-91
2022/04/17 13:24:20;;;;;;;2.38;2.17;;;39.30;35.90;;;;;;4960118;28;20202;-94
2022/04/17 13:26:45;;;;;;;2.50;2.30;;;39.30;35.90;;;;;;4960321;28;20518;-93
2022/04/17 13:29:11;;;;;;;2.50;2.30;;;39.10;35.80;;;;;;4960906;28;20181;-94
2022/04/17 13:31:37;;;;;;;4.45;2.60;;;39.00;35.40;;;;;;4960429;28;20175;-94
2022/04/17 13:34:04;;;;;;;3.20;2.30;;;39.40;35.30;;;;;;4961784;28;20210;-93
2022/04/17 13:36:30;;;;;;;3.00;2.63;;;39.60;35.20;;;;;;4960744;28;20247;-94
2022/04/17 13:38:56;;;;;;;2.45;2.00;;;39.30;35.00;;;;;;4961849;28;20186;-93
2022/04/17 13:41:22;;;;;;;3.47;2.35;;;39.00;35.00;;;;;;4962063;28;20202;-94
2022/04/17 13:43:49;;;;;;;1.77;1.67;;;39.10;34.80;;;;;;4963640;28;20515;-94
2022/04/17 13:46:15;;;;;;;2.00;1.80;;;39.60;34.60;;;;;;4967996;28;20175;-94
2022/04/17 13:48:42;;;;;;;2.20;2.00;;;39.50;34.90;;;;;;4971252;28;20197;-94